Time;durP1;ratioP1;P1;durP2;ratioP2;P2;SDS_P1;SDS_P2;PMS_P1;PMS_P2;Temp;Humidity;BMP_temperature;BMP_pressure;BME280_temperature;BME280_humidity;BME280_pressure;Samples;Min_cycle;Max_cycle;Signal;HPM_P1;HPM_P2
2023/12/04 00:19:56;;;;;;;48.60;23.00;;;;;;;-3.88;93.25;99121.33;437071;1251;109642;-39
2023/12/04 00:40:11;;;;;;;33.50;20.00;;;;;;;-3.85;92.90;99134.67;437064;1251;99233;-39
2023/12/04 00:50:18;;;;;;;42.80;22.40;;;;;;;-3.78;93.21;99139.02;436843;1251;362490;-38
2023/12/04 01:00:25;;;;;;;48.70;23.30;;;;;;;-3.83;93.27;99143.77;437048;1248;99231;-40
2023/12/04 01:10:33;;;;;;;44.00;22.40;;;;;;;-3.96;93.22;99149.13;437167;1247;112027;-40
2023/12/04 01:30:46;;;;;;;29.10;19.00;;;;;;;-3.87;93.17;99156.52;437049;1251;99204;-40
2023/12/04 01:40:53;;;;;;;40.60;19.50;;;;;;;-3.72;93.31;99163.55;437233;1253;108254;-38
2023/12/04 01:51:04;;;;;;;47.10;22.60;;;;;;;-3.83;93.37;99161.33;437256;1247;99205;-39
2023/12/04 02:11:18;;;;;;;31.90;17.50;;;;;;;-4.06;93.33;99163.54;437290;1247;111337;-39
2023/12/04 02:21:24;;;;;;;30.40;16.20;;;;;;;-4.03;93.05;99168.84;437890;1250;108188;-39
2023/12/04 02:31:32;;;;;;;26.90;15.30;;;;;;;-4.01;92.87;99171.08;437075;1253;99259;-40
2023/12/04 02:41:39;;;;;;;32.10;16.30;;;;;;;-4.06;93.18;99173.85;437265;1253;108053;-40
2023/12/04 02:51:46;;;;;;;37.90;17.40;;;;;;;-4.24;93.16;99172.61;437238;1253;99233;-40
2023/12/04 03:01:53;;;;;;;37.50;17.60;;;;;;;-4.47;92.75;99179.05;437429;1252;113315;-40
2023/12/04 03:22:04;;;;;;;26.50;14.70;;;;;;;-4.86;92.33;99190.27;437326;1248;99226;-40
2023/12/04 03:32:11;;;;;;;37.40;19.40;;;;;;;-5.05;92.47;99192.86;437240;1253;108349;-40
2023/12/04 03:42:19;;;;;;;41.60;21.50;;;;;;;-5.33;92.26;99190.40;437272;1248;99215;-39
2023/12/04 03:52:26;;;;;;;46.30;24.90;;;;;;;-5.72;92.10;99183.52;437308;1253;111894;-40
2023/12/04 04:02:33;;;;;;;37.60;20.00;;;;;;;-6.03;91.84;99184.24;437200;1253;108396;-40
2023/12/04 04:12:40;;;;;;;43.90;24.30;;;;;;;-6.12;91.72;99192.13;437143;1247;98807;-40
2023/12/04 04:22:50;;;;;;;29.30;17.20;;;;;;;-6.10;92.07;99194.41;437313;1257;107758;-39
2023/12/04 04:32:57;;;;;;;31.20;17.20;;;;;;;-5.99;92.32;99191.16;437577;1253;98304;-40
2023/12/04 04:43:04;;;;;;;31.30;19.50;;;;;;;-5.94;92.39;99194.61;437325;1248;110584;-41
2023/12/04 04:53:12;;;;;;;33.10;19.80;;;;;;;-5.70;92.70;99203.09;437121;1253;107867;-40
2023/12/04 05:03:17;;;;;;;52.80;29.20;;;;;;;-5.51;92.74;99213.56;437089;1248;98918;-38
2023/12/04 05:13:25;;;;;;;48.50;27.10;;;;;;;-5.48;92.68;99205.29;437270;1261;107697;-41
2023/12/04 05:23:32;;;;;;;57.00;30.10;;;;;;;-5.43;92.62;99190.63;437240;1248;98823;-39
2023/12/04 05:33:39;;;;;;;68.30;31.20;;;;;;;-5.60;92.31;99184.02;437257;1248;110976;-39
2023/12/04 05:43:51;;;;;;;54.50;29.60;;;;;;;-5.83;92.28;99187.95;437175;1261;106596;-39
2023/12/04 05:53:57;;;;;;;68.60;36.10;;;;;;;-5.99;92.29;99182.27;437247;1252;99221;-39
2023/12/04 06:04:05;;;;;;;62.10;30.60;;;;;;;-6.08;92.48;99178.96;436995;1251;107251;-39
2023/12/04 06:14:12;;;;;;;57.30;29.90;;;;;;;-6.08;92.54;99191.70;437120;1253;99337;-40
2023/12/04 06:24:21;;;;;;;60.30;33.40;;;;;;;-6.07;92.39;99184.77;437075;1248;111722;-40
2023/12/04 06:34:29;;;;;;;59.10;28.10;;;;;;;-6.02;92.55;99201.38;437087;1253;107588;-39
2023/12/04 06:44:37;;;;;;;72.60;35.10;;;;;;;-6.02;92.34;99212.38;437230;1248;99207;-40
2023/12/04 06:54:44;;;;;;;67.50;34.00;;;;;;;-5.98;92.51;99217.70;437173;1253;106904;-39
2023/12/04 07:04:51;;;;;;;65.60;32.80;;;;;;;-5.90;92.51;99217.83;436938;1254;99214;-40
2023/12/04 07:14:58;;;;;;;70.60;36.80;;;;;;;-5.91;92.40;99208.47;437111;1252;111240;-39
2023/12/04 07:25:06;;;;;;;81.30;42.00;;;;;;;-5.98;92.26;99203.96;437341;1251;107021;-40
2023/12/04 07:45:20;;;;;;;74.50;39.10;;;;;;;-6.00;92.10;99204.68;437172;1261;107865;-40
2023/12/04 07:55:27;;;;;;;58.40;32.40;;;;;;;-6.09;92.12;99191.62;437259;1253;98689;-40
2023/12/04 08:05:34;;;;;;;61.70;34.10;;;;;;;-5.97;92.68;99190.67;437091;1253;113038;-40
2023/12/04 08:15:41;;;;;;;64.80;33.10;;;;;;;-5.41;92.90;99189.42;436968;1247;108509;-39
2023/12/04 08:25:49;;;;;;;79.90;38.30;;;;;;;-4.09;94.07;99193.84;437609;1248;98702;-40
2023/12/04 08:35:56;;;;;;;84.30;41.90;;;;;;;-3.20;92.97;99179.21;437381;1259;108051;-40
2023/12/04 08:46:04;;;;;;;93.80;42.20;;;;;;;-3.33;92.03;99180.60;437449;1250;99205;-40
2023/12/04 09:06:26;;;;;;;96.60;45.20;;;;;;;-3.47;91.65;99195.77;437438;1250;108601;-40
2023/12/04 09:16:53;;;;;;;72.80;37.30;;;;;;;-3.46;91.40;99193.78;437476;1251;98540;-40
2023/12/04 09:37:07;;;;;;;109.80;48.10;;;;;;;-2.85;91.54;99181.54;437472;1250;108144;-39
2023/12/04 09:47:18;;;;;;;98.30;45.00;;;;;;;-2.68;91.68;99174.02;437675;1251;97998;-40
2023/12/04 09:57:24;;;;;;;64.90;36.00;;;;;;;-2.39;91.43;99162.04;437425;1251;111925;-40
2023/12/04 10:07:31;;;;;;;60.70;29.80;;;;;;;-1.96;91.38;99135.77;437450;1250;107821;-38
2023/12/04 10:17:41;;;;;;;71.80;36.90;;;;;;;-1.64;91.35;99124.91;437513;1250;99877;-39
2023/12/04 10:27:49;;;;;;;61.70;33.20;;;;;;;-1.45;91.49;99120.75;437510;1250;110120;-40
2023/12/04 10:37:55;;;;;;;61.50;30.10;;;;;;;-1.26;91.17;99113.55;437554;1250;107751;-39
2023/12/04 10:58:11;;;;;;;41.00;22.40;;;;;;;-1.06;90.45;99098.06;437535;1248;111960;-42
2023/12/04 11:08:20;;;;;;;59.90;31.00;;;;;;;-0.83;90.69;99085.96;437548;1248;107518;-40
2023/12/04 11:18:28;;;;;;;72.10;34.50;;;;;;;-0.84;90.40;99081.25;437697;1250;97978;-40
2023/12/04 11:28:38;;;;;;;69.00;33.30;;;;;;;-0.96;90.16;99071.13;437936;1248;111342;-40
2023/12/04 11:48:53;;;;;;;38.10;19.00;;;;;;;-1.13;89.50;99054.04;438017;1250;98242;-40
2023/12/04 11:59:03;;;;;;;54.70;27.00;;;;;;;-1.23;89.18;99046.86;438383;1248;107693;-42
2023/12/04 12:19:20;;;;;;;56.00;26.80;;;;;;;-1.37;89.03;99021.27;438508;1247;111318;-39
2023/12/04 12:29:28;;;;;;;41.60;23.80;;;;;;;-1.49;88.74;99009.70;437378;1251;108727;-40
2023/12/04 13:09:56;;;;;;;68.20;32.60;;;;;;;-1.74;88.56;98968.54;437602;1250;98804;-40
2023/12/04 13:30:11;;;;;;;96.60;41.90;;;;;;;-2.00;88.35;98947.44;437535;1260;99249;-40
2023/12/04 13:40:17;;;;;;;92.40;47.10;;;;;;;-2.28;88.37;98939.81;437637;1247;110955;-39
2023/12/04 13:50:25;;;;;;;79.10;41.70;;;;;;;-2.51;88.37;98930.71;437666;1250;107164;-40
2023/12/04 14:00:31;;;;;;;62.70;33.40;;;;;;;-2.73;88.36;98916.68;437758;1246;97998;-40
2023/12/04 14:10:39;;;;;;;70.30;35.50;;;;;;;-2.85;88.07;98907.79;437763;1247;111053;-40
2023/12/04 14:20:48;;;;;;;71.80;38.40;;;;;;;-2.96;88.20;98904.80;437376;1248;107007;-39
2023/12/04 14:30:56;;;;;;;94.00;46.50;;;;;;;-3.12;88.45;98893.48;437826;1247;99198;-39
2023/12/04 14:41:03;;;;;;;93.40;46.60;;;;;;;-3.33;88.61;98887.95;437540;1250;112295;-40
2023/12/04 14:51:11;;;;;;;101.90;49.40;;;;;;;-3.53;88.77;98884.48;437438;1250;108656;-40
2023/12/04 15:32:00;;;;;;;101.60;49.70;;;;;;;-3.66;89.07;98871.58;437613;1247;112351;-40
2023/12/04 15:42:08;;;;;;;88.40;47.60;;;;;;;-3.75;89.31;98867.35;437432;1250;109259;-39
2023/12/04 16:02:21;;;;;;;84.80;42.50;;;;;;;-4.06;89.22;98863.09;437697;1250;111704;-40
2023/12/04 16:12:29;;;;;;;73.50;39.40;;;;;;;-4.11;88.93;98850.96;437635;1250;106761;-40
2023/12/04 16:32:41;;;;;;;96.80;49.50;;;;;;;-4.19;89.05;98826.40;437551;1248;108780;-40
2023/12/04 16:42:48;;;;;;;90.70;48.70;;;;;;;-4.30;89.27;98829.20;437613;1250;99256;-39
2023/12/04 16:53:08;;;;;;;102.40;47.70;;;;;;;-4.40;89.49;98826.23;437659;1248;113114;-41
2023/12/04 17:03:15;;;;;;;77.50;36.70;;;;;;;-4.46;89.37;98814.71;437558;1250;108146;-40
2023/12/04 17:23:27;;;;;;;55.60;26.80;;;;;;;-4.16;89.27;98803.68;437589;1250;108993;-40
2023/12/04 17:33:33;;;;;;;76.80;35.30;;;;;;;-4.09;89.25;98798.77;437723;1247;98001;-40
2023/12/04 17:43:41;;;;;;;96.20;37.80;;;;;;;-4.10;89.46;98790.64;437667;1250;110740;-38
2023/12/04 18:03:55;;;;;;;64.50;31.60;;;;;;;-4.22;89.25;98772.05;437637;1246;98026;-40
2023/12/04 18:14:04;;;;;;;62.60;32.50;;;;;;;-4.17;89.07;98774.52;437550;1251;111850;-39
2023/12/04 18:34:17;;;;;;;76.80;37.50;;;;;;;-4.09;89.08;98760.25;437725;1247;99194;-40
2023/12/04 18:44:28;;;;;;;70.30;33.90;;;;;;;-4.20;88.91;98760.55;437492;1247;108568;-40
2023/12/04 18:54:35;;;;;;;80.30;36.70;;;;;;;-4.36;88.95;98747.95;437484;1250;99211;-40
2023/12/04 19:04:43;;;;;;;76.60;37.50;;;;;;;-4.46;89.03;98742.83;437646;1250;112960;-38
2023/12/04 19:14:50;;;;;;;60.50;33.40;;;;;;;-4.44;88.96;98747.15;437561;1250;107481;-40
2023/12/04 19:24:57;;;;;;;60.60;33.20;;;;;;;-4.34;88.86;98747.79;437644;1247;99214;-39
2023/12/04 19:35:04;;;;;;;90.00;42.20;;;;;;;-4.26;88.93;98733.19;437607;1247;108665;-40
2023/12/04 19:45:12;;;;;;;90.80;43.00;;;;;;;-4.34;88.83;98724.37;437638;1250;98944;-40
2023/12/04 19:55:19;;;;;;;137.10;63.60;;;;;;;-4.48;88.86;98716.98;437582;1248;111009;-40
2023/12/04 20:05:26;;;;;;;119.50;52.60;;;;;;;-4.64;88.78;98695.50;437572;1250;108215;-39
2023/12/04 20:15:34;;;;;;;108.80;51.30;;;;;;;-4.77;88.91;98689.24;437817;1248;98850;-41
2023/12/04 20:25:42;;;;;;;81.90;40.20;;;;;;;-4.78;88.70;98683.66;437588;1250;107507;-42
2023/12/04 20:35:50;;;;;;;69.00;35.90;;;;;;;-4.71;88.68;98691.30;437629;1248;99250;-39
2023/12/04 20:45:57;;;;;;;133.80;55.90;;;;;;;-4.79;88.59;98684.08;437578;1248;112066;-39
2023/12/04 21:06:12;;;;;;;112.30;51.00;;;;;;;-5.08;88.71;98672.62;437519;1248;99205;-39
2023/12/04 21:16:17;;;;;;;;;;;;;;;-5.19;88.58;98662.75;437690;1250;106657;-39
2023/12/04 21:26:24;;;;;;;126.00;54.90;;;;;;;-5.26;88.61;98648.05;437571;1248;99234;-39
2023/12/04 21:36:31;;;;;;;97.30;51.00;;;;;;;-5.24;88.67;98644.46;437455;1248;112069;-40
2023/12/04 21:46:40;;;;;;;89.40;44.70;;;;;;;-5.12;88.72;98640.30;437528;1248;107191;-39
2023/12/04 21:56:47;;;;;;;115.00;55.10;;;;;;;-5.00;88.77;98619.47;437654;1248;99205;-40
2023/12/04 22:06:53;;;;;;;78.30;39.50;;;;;;;-4.99;88.45;98613.61;437558;1250;106621;-40
2023/12/04 22:17:01;;;;;;;91.30;42.50;;;;;;;-5.22;87.96;98597.15;437622;1249;97998;-39
2023/12/04 22:27:08;;;;;;;84.30;42.40;;;;;;;-5.43;88.03;98585.24;437434;1246;113128;-40
2023/12/04 22:37:16;;;;;;;137.00;59.60;;;;;;;-5.59;88.00;98571.14;437528;1250;108825;-41
2023/12/04 22:47:23;;;;;;;153.10;59.50;;;;;;;-5.62;88.23;98554.91;437442;1251;99199;-40
2023/12/04 22:57:29;;;;;;;146.00;59.10;;;;;;;-5.57;88.31;98543.61;437514;1250;108112;-39
2023/12/04 23:17:42;;;;;;;186.00;64.60;;;;;;;-5.36;88.75;98529.48;437618;1250;112597;-39
2023/12/04 23:27:49;;;;;;;183.10;63.10;;;;;;;-5.55;88.36;98519.98;437521;1250;108340;-40
2023/12/04 23:37:55;;;;;;;154.60;61.90;;;;;;;-5.75;88.40;98509.44;437605;1247;98389;-39
2023/12/04 23:48:03;;;;;;;118.60;49.90;;;;;;;-5.78;88.30;98492.86;437524;1246;107634;-39
2023/12/04 23:58:08;;;;;;;104.70;49.10;;;;;;;-5.62;88.39;98484.98;437560;1250;99228;-40
